sensor_id;sensor_type;location;lat;lon;timestamp;temperature;humidity
45619;DHT22;31343;47.520;19.144;2022-07-29T00:02:04;24.90;77.60
45619;DHT22;31343;47.520;19.144;2022-07-29T00:04:29;24.90;77.80
45619;DHT22;31343;47.520;19.144;2022-07-29T00:06:55;24.90;77.70
45619;DHT22;31343;47.520;19.144;2022-07-29T00:09:20;24.90;78.10
45619;DHT22;31343;47.520;19.144;2022-07-29T00:11:46;24.90;78.40
45619;DHT22;31343;47.520;19.144;2022-07-29T00:14:12;24.80;78.60
45619;DHT22;31343;47.520;19.144;2022-07-29T00:16:38;24.70;78.80
45619;DHT22;31343;47.520;19.144;2022-07-29T00:19:03;24.70;79.00
45619;DHT22;31343;47.520;19.144;2022-07-29T00:21:29;24.60;79.10
45619;DHT22;31343;47.520;19.144;2022-07-29T00:23:55;24.70;79.30
45619;DHT22;31343;47.520;19.144;2022-07-29T00:26:20;24.60;79.10
45619;DHT22;31343;47.520;19.144;2022-07-29T00:28:46;24.60;79.10
45619;DHT22;31343;47.520;19.144;2022-07-29T00:31:12;24.60;79.20
45619;DHT22;31343;47.520;19.144;2022-07-29T00:33:38;24.60;79.00
45619;DHT22;31343;47.520;19.144;2022-07-29T00:36:03;24.60;78.80
45619;DHT22;31343;47.520;19.144;2022-07-29T00:38:29;24.50;79.20
45619;DHT22;31343;47.520;19.144;2022-07-29T00:40:55;24.50;79.30
45619;DHT22;31343;47.520;19.144;2022-07-29T00:43:20;24.50;79.20
45619;DHT22;31343;47.520;19.144;2022-07-29T00:45:46;24.50;79.60
45619;DHT22;31343;47.520;19.144;2022-07-29T00:48:11;24.50;79.60
45619;DHT22;31343;47.520;19.144;2022-07-29T00:50:38;24.50;79.60
45619;DHT22;31343;47.520;19.144;2022-07-29T00:53:06;24.50;80.00
45619;DHT22;31343;47.520;19.144;2022-07-29T00:55:32;24.50;79.80
45619;DHT22;31343;47.520;19.144;2022-07-29T00:57:58;24.40;80.00
45619;DHT22;31343;47.520;19.144;2022-07-29T01:00:26;24.40;80.00
45619;DHT22;31343;47.520;19.144;2022-07-29T01:02:52;24.40;80.00
45619;DHT22;31343;47.520;19.144;2022-07-29T01:05:20;24.40;80.10
45619;DHT22;31343;47.520;19.144;2022-07-29T01:07:47;24.40;80.00
45619;DHT22;31343;47.520;19.144;2022-07-29T01:10:14;24.30;80.10
45619;DHT22;31343;47.520;19.144;2022-07-29T01:12:42;24.30;80.20
45619;DHT22;31343;47.520;19.144;2022-07-29T01:15:08;24.40;80.10
45619;DHT22;31343;47.520;19.144;2022-07-29T01:20:21;24.30;80.20
45619;DHT22;31343;47.520;19.144;2022-07-29T01:23:11;24.40;80.50
45619;DHT22;31343;47.520;19.144;2022-07-29T01:26:02;24.30;80.40
45619;DHT22;31343;47.520;19.144;2022-07-29T01:31:11;24.20;81.00
45619;DHT22;31343;47.520;19.144;2022-07-29T01:33:41;24.20;81.40
45619;DHT22;31343;47.520;19.144;2022-07-29T01:36:20;24.20;80.90
45619;DHT22;31343;47.520;19.144;2022-07-29T01:39:04;24.20;81.20
45619;DHT22;31343;47.520;19.144;2022-07-29T01:41:33;24.20;81.80
45619;DHT22;31343;47.520;19.144;2022-07-29T01:44:08;24.10;81.90
45619;DHT22;31343;47.520;19.144;2022-07-29T01:46:38;24.10;82.00
45619;DHT22;31343;47.520;19.144;2022-07-29T01:49:17;24.10;82.10
45619;DHT22;31343;47.520;19.144;2022-07-29T01:51:52;24.10;82.60
45619;DHT22;31343;47.520;19.144;2022-07-29T01:54:22;24.00;82.80
45619;DHT22;31343;47.520;19.144;2022-07-29T01:56:51;23.90;82.60
45619;DHT22;31343;47.520;19.144;2022-07-29T01:59:18;23.90;82.80
45619;DHT22;31343;47.520;19.144;2022-07-29T02:01:45;23.90;83.30
45619;DHT22;31343;47.520;19.144;2022-07-29T02:04:13;23.80;83.50
45619;DHT22;31343;47.520;19.144;2022-07-29T02:06:40;23.80;84.10
45619;DHT22;31343;47.520;19.144;2022-07-29T02:09:09;23.80;84.50
45619;DHT22;31343;47.520;19.144;2022-07-29T02:11:37;23.80;84.70
45619;DHT22;31343;47.520;19.144;2022-07-29T02:14:04;23.80;85.00
45619;DHT22;31343;47.520;19.144;2022-07-29T02:16:32;23.80;85.10
45619;DHT22;31343;47.520;19.144;2022-07-29T02:19:00;23.70;85.30
45619;DHT22;31343;47.520;19.144;2022-07-29T02:21:27;23.70;85.80
45619;DHT22;31343;47.520;19.144;2022-07-29T02:23:54;23.60;85.80
45619;DHT22;31343;47.520;19.144;2022-07-29T02:26:23;23.60;86.20
45619;DHT22;31343;47.520;19.144;2022-07-29T02:28:51;23.50;86.50
45619;DHT22;31343;47.520;19.144;2022-07-29T02:31:22;23.50;87.00
45619;DHT22;31343;47.520;19.144;2022-07-29T02:33:50;23.50;87.00
45619;DHT22;31343;47.520;19.144;2022-07-29T02:36:17;23.50;87.20
45619;DHT22;31343;47.520;19.144;2022-07-29T02:38:46;23.50;87.30
45619;DHT22;31343;47.520;19.144;2022-07-29T02:41:52;23.50;87.20
45619;DHT22;31343;47.520;19.144;2022-07-29T02:44:24;23.40;87.60
45619;DHT22;31343;47.520;19.144;2022-07-29T02:49:41;23.30;88.10
45619;DHT22;31343;47.520;19.144;2022-07-29T02:55:29;23.20;88.50
45619;DHT22;31343;47.520;19.144;2022-07-29T02:58:05;23.20;88.40
45619;DHT22;31343;47.520;19.144;2022-07-29T03:00:38;23.20;88.30
45619;DHT22;31343;47.520;19.144;2022-07-29T03:03:08;23.10;88.60
45619;DHT22;31343;47.520;19.144;2022-07-29T03:05:34;23.00;88.60
45619;DHT22;31343;47.520;19.144;2022-07-29T03:08:03;23.00;89.10
45619;DHT22;31343;47.520;19.144;2022-07-29T03:10:30;22.90;89.20
45619;DHT22;31343;47.520;19.144;2022-07-29T03:12:57;22.80;89.40
45619;DHT22;31343;47.520;19.144;2022-07-29T03:15:23;22.80;89.60
45619;DHT22;31343;47.520;19.144;2022-07-29T03:17:50;22.80;89.40
45619;DHT22;31343;47.520;19.144;2022-07-29T03:20:16;22.80;89.70
45619;DHT22;31343;47.520;19.144;2022-07-29T03:22:43;22.80;89.60
45619;DHT22;31343;47.520;19.144;2022-07-29T03:25:10;22.80;89.50
45619;DHT22;31343;47.520;19.144;2022-07-29T03:27:36;22.80;89.80
45619;DHT22;31343;47.520;19.144;2022-07-29T03:30:02;22.70;89.90
45619;DHT22;31343;47.520;19.144;2022-07-29T03:32:28;22.60;90.10
45619;DHT22;31343;47.520;19.144;2022-07-29T03:34:54;22.60;90.50
45619;DHT22;31343;47.520;19.144;2022-07-29T03:37:19;22.50;90.70
45619;DHT22;31343;47.520;19.144;2022-07-29T03:39:46;22.50;90.70
45619;DHT22;31343;47.520;19.144;2022-07-29T03:42:15;22.50;90.80
45619;DHT22;31343;47.520;19.144;2022-07-29T03:44:43;22.50;90.90
45619;DHT22;31343;47.520;19.144;2022-07-29T03:47:11;22.60;90.90
45619;DHT22;31343;47.520;19.144;2022-07-29T03:49:40;22.60;91.00
45619;DHT22;31343;47.520;19.144;2022-07-29T03:52:06;22.60;91.10
45619;DHT22;31343;47.520;19.144;2022-07-29T03:54:32;22.60;91.20
45619;DHT22;31343;47.520;19.144;2022-07-29T03:56:59;22.60;91.20
45619;DHT22;31343;47.520;19.144;2022-07-29T03:59:27;22.60;91.20
45619;DHT22;31343;47.520;19.144;2022-07-29T04:01:53;22.60;91.30
45619;DHT22;31343;47.520;19.144;2022-07-29T04:04:20;22.70;91.30
45619;DHT22;31343;47.520;19.144;2022-07-29T04:06:46;22.70;91.60
45619;DHT22;31343;47.520;19.144;2022-07-29T04:09:12;22.70;91.70
45619;DHT22;31343;47.520;19.144;2022-07-29T04:11:39;22.70;91.60
45619;DHT22;31343;47.520;19.144;2022-07-29T04:14:05;22.70;91.90
45619;DHT22;31343;47.520;19.144;2022-07-29T04:16:31;22.70;92.00
45619;DHT22;31343;47.520;19.144;2022-07-29T04:18:57;22.70;91.80
45619;DHT22;31343;47.520;19.144;2022-07-29T04:21:23;22.70;92.10
45619;DHT22;31343;47.520;19.144;2022-07-29T04:23:48;22.80;92.00
45619;DHT22;31343;47.520;19.144;2022-07-29T04:26:18;22.80;92.10
45619;DHT22;31343;47.520;19.144;2022-07-29T04:28:44;22.90;92.20
45619;DHT22;31343;47.520;19.144;2022-07-29T04:31:11;22.90;92.10
45619;DHT22;31343;47.520;19.144;2022-07-29T04:33:36;22.90;92.20
45619;DHT22;31343;47.520;19.144;2022-07-29T04:36:02;23.00;92.50
45619;DHT22;31343;47.520;19.144;2022-07-29T04:38:28;23.00;92.30
45619;DHT22;31343;47.520;19.144;2022-07-29T04:40:54;23.10;92.40
45619;DHT22;31343;47.520;19.144;2022-07-29T04:43:19;23.10;92.40
45619;DHT22;31343;47.520;19.144;2022-07-29T04:45:45;23.10;92.50
45619;DHT22;31343;47.520;19.144;2022-07-29T04:48:11;23.20;92.30
45619;DHT22;31343;47.520;19.144;2022-07-29T04:50:40;23.30;92.30
45619;DHT22;31343;47.520;19.144;2022-07-29T04:53:06;23.30;92.20
45619;DHT22;31343;47.520;19.144;2022-07-29T04:55:33;23.40;92.10
45619;DHT22;31343;47.520;19.144;2022-07-29T04:57:58;23.40;92.00
45619;DHT22;31343;47.520;19.144;2022-07-29T05:00:24;23.50;92.10
45619;DHT22;31343;47.520;19.144;2022-07-29T05:02:50;23.60;91.70
45619;DHT22;31343;47.520;19.144;2022-07-29T05:05:15;23.80;91.80
45619;DHT22;31343;47.520;19.144;2022-07-29T05:07:41;23.90;91.60
45619;DHT22;31343;47.520;19.144;2022-07-29T05:10:07;24.10;91.10
45619;DHT22;31343;47.520;19.144;2022-07-29T05:12:33;24.40;90.70
45619;DHT22;31343;47.520;19.144;2022-07-29T05:14:59;24.70;90.20
45619;DHT22;31343;47.520;19.144;2022-07-29T05:17:24;25.10;89.50
45619;DHT22;31343;47.520;19.144;2022-07-29T05:19:50;25.40;88.30
45619;DHT22;31343;47.520;19.144;2022-07-29T05:22:18;25.80;87.60
45619;DHT22;31343;47.520;19.144;2022-07-29T05:24:44;26.10;86.10
45619;DHT22;31343;47.520;19.144;2022-07-29T05:27:09;26.30;85.00
45619;DHT22;31343;47.520;19.144;2022-07-29T05:29:35;26.70;84.40
45619;DHT22;31343;47.520;19.144;2022-07-29T05:32:01;27.00;83.10
45619;DHT22;31343;47.520;19.144;2022-07-29T05:34:26;27.50;81.80
45619;DHT22;31343;47.520;19.144;2022-07-29T05:36:52;27.80;81.20
45619;DHT22;31343;47.520;19.144;2022-07-29T05:39:18;28.40;80.20
45619;DHT22;31343;47.520;19.144;2022-07-29T05:41:44;28.70;78.30
45619;DHT22;31343;47.520;19.144;2022-07-29T05:44:10;29.30;76.70
45619;DHT22;31343;47.520;19.144;2022-07-29T05:46:36;29.80;75.70
45619;DHT22;31343;47.520;19.144;2022-07-29T05:49:02;30.10;74.20
45619;DHT22;31343;47.520;19.144;2022-07-29T05:51:28;30.20;73.30
45619;DHT22;31343;47.520;19.144;2022-07-29T05:53:55;30.50;73.50
45619;DHT22;31343;47.520;19.144;2022-07-29T05:56:20;30.70;72.10
45619;DHT22;31343;47.520;19.144;2022-07-29T05:58:46;30.90;71.10
45619;DHT22;31343;47.520;19.144;2022-07-29T06:01:11;30.60;71.80
45619;DHT22;31343;47.520;19.144;2022-07-29T06:03:37;30.70;71.00
45619;DHT22;31343;47.520;19.144;2022-07-29T06:06:03;31.00;71.00
45619;DHT22;31343;47.520;19.144;2022-07-29T06:08:31;31.60;70.90
45619;DHT22;31343;47.520;19.144;2022-07-29T06:10:59;31.70;69.70
45619;DHT22;31343;47.520;19.144;2022-07-29T06:13:25;31.90;69.00
45619;DHT22;31343;47.520;19.144;2022-07-29T06:15:50;32.20;68.30
45619;DHT22;31343;47.520;19.144;2022-07-29T06:18:16;32.60;68.30
45619;DHT22;31343;47.520;19.144;2022-07-29T06:20:42;32.00;68.00
45619;DHT22;31343;47.520;19.144;2022-07-29T06:23:07;32.00;68.20
45619;DHT22;31343;47.520;19.144;2022-07-29T06:25:33;32.50;67.80
45619;DHT22;31343;47.520;19.144;2022-07-29T06:28:01;32.20;67.20
45619;DHT22;31343;47.520;19.144;2022-07-29T06:30:26;32.50;67.00
45619;DHT22;31343;47.520;19.144;2022-07-29T06:32:54;32.30;66.90
45619;DHT22;31343;47.520;19.144;2022-07-29T06:35:19;32.70;67.30
45619;DHT22;31343;47.520;19.144;2022-07-29T06:37:45;33.00;66.60
45619;DHT22;31343;47.520;19.144;2022-07-29T06:40:11;33.30;66.50
45619;DHT22;31343;47.520;19.144;2022-07-29T06:42:55;33.40;66.20
45619;DHT22;31343;47.520;19.144;2022-07-29T06:45:21;32.40;66.30
45619;DHT22;31343;47.520;19.144;2022-07-29T06:47:46;31.50;66.60
45619;DHT22;31343;47.520;19.144;2022-07-29T06:50:14;30.70;67.30
45619;DHT22;31343;47.520;19.144;2022-07-29T06:52:40;30.10;68.90
45619;DHT22;31343;47.520;19.144;2022-07-29T06:55:06;30.50;69.60
45619;DHT22;31343;47.520;19.144;2022-07-29T06:57:32;30.70;69.20
45619;DHT22;31343;47.520;19.144;2022-07-29T06:59:58;31.30;67.90
45619;DHT22;31343;47.520;19.144;2022-07-29T07:02:23;32.00;67.70
45619;DHT22;31343;47.520;19.144;2022-07-29T07:04:49;32.70;67.40
45619;DHT22;31343;47.520;19.144;2022-07-29T07:07:15;32.40;65.40
45619;DHT22;31343;47.520;19.144;2022-07-29T07:09:40;32.40;66.10
45619;DHT22;31343;47.520;19.144;2022-07-29T07:12:06;33.30;65.00
45619;DHT22;31343;47.520;19.144;2022-07-29T07:14:32;33.30;65.50
45619;DHT22;31343;47.520;19.144;2022-07-29T07:16:57;33.80;64.00
45619;DHT22;31343;47.520;19.144;2022-07-29T07:19:25;33.40;64.80
45619;DHT22;31343;47.520;19.144;2022-07-29T07:21:53;33.60;64.40
45619;DHT22;31343;47.520;19.144;2022-07-29T07:24:18;33.80;64.60
45619;DHT22;31343;47.520;19.144;2022-07-29T07:26:44;34.40;64.60
45619;DHT22;31343;47.520;19.144;2022-07-29T07:29:10;35.20;62.60
45619;DHT22;31343;47.520;19.144;2022-07-29T07:31:37;35.20;62.90
45619;DHT22;31343;47.520;19.144;2022-07-29T07:34:03;35.10;62.20
45619;DHT22;31343;47.520;19.144;2022-07-29T07:36:29;34.50;62.40
45619;DHT22;31343;47.520;19.144;2022-07-29T07:38:55;34.10;62.90
45619;DHT22;31343;47.520;19.144;2022-07-29T07:41:21;34.30;63.90
45619;DHT22;31343;47.520;19.144;2022-07-29T07:43:47;33.90;63.50
45619;DHT22;31343;47.520;19.144;2022-07-29T07:46:13;32.90;64.30
45619;DHT22;31343;47.520;19.144;2022-07-29T07:48:38;32.70;65.10
45619;DHT22;31343;47.520;19.144;2022-07-29T07:51:04;33.10;64.90
45619;DHT22;31343;47.520;19.144;2022-07-29T07:53:30;32.80;65.10
45619;DHT22;31343;47.520;19.144;2022-07-29T07:55:56;32.80;65.60
45619;DHT22;31343;47.520;19.144;2022-07-29T07:58:21;33.50;64.70
45619;DHT22;31343;47.520;19.144;2022-07-29T08:00:47;34.10;64.40
45619;DHT22;31343;47.520;19.144;2022-07-29T08:03:13;33.90;63.20
45619;DHT22;31343;47.520;19.144;2022-07-29T08:05:39;33.80;63.60
45619;DHT22;31343;47.520;19.144;2022-07-29T08:08:06;33.30;64.40
45619;DHT22;31343;47.520;19.144;2022-07-29T08:10:31;33.50;64.10
45619;DHT22;31343;47.520;19.144;2022-07-29T08:13:15;33.50;63.90
45619;DHT22;31343;47.520;19.144;2022-07-29T08:15:42;33.60;64.00
45619;DHT22;31343;47.520;19.144;2022-07-29T08:18:09;34.20;63.90
45619;DHT22;31343;47.520;19.144;2022-07-29T08:20:36;34.30;63.30
45619;DHT22;31343;47.520;19.144;2022-07-29T08:23:03;34.80;62.20
45619;DHT22;31343;47.520;19.144;2022-07-29T08:25:30;34.70;62.10
45619;DHT22;31343;47.520;19.144;2022-07-29T08:27:55;35.40;61.50
45619;DHT22;31343;47.520;19.144;2022-07-29T08:30:21;35.10;61.20
45619;DHT22;31343;47.520;19.144;2022-07-29T08:32:48;35.30;61.10
45619;DHT22;31343;47.520;19.144;2022-07-29T08:35:14;35.00;61.70
45619;DHT22;31343;47.520;19.144;2022-07-29T08:37:40;33.90;62.90
45619;DHT22;31343;47.520;19.144;2022-07-29T08:40:06;33.80;63.20
45619;DHT22;31343;47.520;19.144;2022-07-29T08:42:31;33.60;63.30
45619;DHT22;31343;47.520;19.144;2022-07-29T08:44:58;34.40;62.80
45619;DHT22;31343;47.520;19.144;2022-07-29T08:47:23;34.70;62.10
45619;DHT22;31343;47.520;19.144;2022-07-29T08:49:51;34.90;62.00
45619;DHT22;31343;47.520;19.144;2022-07-29T08:52:18;35.30;61.50
45619;DHT22;31343;47.520;19.144;2022-07-29T08:54:45;35.80;60.80
45619;DHT22;31343;47.520;19.144;2022-07-29T08:57:14;36.10;60.20
45619;DHT22;31343;47.520;19.144;2022-07-29T08:59:42;35.20;60.00
45619;DHT22;31343;47.520;19.144;2022-07-29T09:02:18;35.50;60.30
45619;DHT22;31343;47.520;19.144;2022-07-29T09:04:44;35.60;60.50
45619;DHT22;31343;47.520;19.144;2022-07-29T09:07:15;36.00;61.50
45619;DHT22;31343;47.520;19.144;2022-07-29T09:09:40;35.60;60.40
45619;DHT22;31343;47.520;19.144;2022-07-29T09:12:06;35.40;61.30
45619;DHT22;31343;47.520;19.144;2022-07-29T09:14:33;35.20;60.40
45619;DHT22;31343;47.520;19.144;2022-07-29T09:16:59;34.30;61.50
45619;DHT22;31343;47.520;19.144;2022-07-29T09:19:34;34.00;61.30
45619;DHT22;31343;47.520;19.144;2022-07-29T09:22:03;33.60;61.40
45619;DHT22;31343;47.520;19.144;2022-07-29T09:24:39;33.60;61.40
45619;DHT22;31343;47.520;19.144;2022-07-29T09:27:25;33.50;60.70
45619;DHT22;31343;47.520;19.144;2022-07-29T09:29:57;33.00;61.10
45619;DHT22;31343;47.520;19.144;2022-07-29T09:32:23;33.00;61.50
45619;DHT22;31343;47.520;19.144;2022-07-29T09:34:49;33.10;61.40
45619;DHT22;31343;47.520;19.144;2022-07-29T09:37:29;33.00;61.60
45619;DHT22;31343;47.520;19.144;2022-07-29T09:39:55;33.00;60.80
45619;DHT22;31343;47.520;19.144;2022-07-29T09:42:28;32.80;61.40
45619;DHT22;31343;47.520;19.144;2022-07-29T09:44:54;32.70;62.20
45619;DHT22;31343;47.520;19.144;2022-07-29T09:47:20;32.60;62.70
45619;DHT22;31343;47.520;19.144;2022-07-29T09:49:54;32.50;63.20
45619;DHT22;31343;47.520;19.144;2022-07-29T09:52:23;32.70;62.80
45619;DHT22;31343;47.520;19.144;2022-07-29T09:54:48;32.60;61.80
45619;DHT22;31343;47.520;19.144;2022-07-29T09:57:27;32.60;61.20
45619;DHT22;31343;47.520;19.144;2022-07-29T10:00:00;32.60;60.60
45619;DHT22;31343;47.520;19.144;2022-07-29T10:02:31;32.90;60.90
45619;DHT22;31343;47.520;19.144;2022-07-29T10:04:57;33.10;61.10
45619;DHT22;31343;47.520;19.144;2022-07-29T10:07:24;33.00;60.00
45619;DHT22;31343;47.520;19.144;2022-07-29T10:09:54;33.00;60.10
45619;DHT22;31343;47.520;19.144;2022-07-29T10:12:20;33.10;60.00
45619;DHT22;31343;47.520;19.144;2022-07-29T10:14:46;33.00;59.80
45619;DHT22;31343;47.520;19.144;2022-07-29T10:17:12;33.10;59.00
45619;DHT22;31343;47.520;19.144;2022-07-29T10:19:38;33.40;59.10
45619;DHT22;31343;47.520;19.144;2022-07-29T10:22:06;33.90;59.30
45619;DHT22;31343;47.520;19.144;2022-07-29T10:24:34;34.10;58.50
45619;DHT22;31343;47.520;19.144;2022-07-29T10:27:02;34.10;57.60
45619;DHT22;31343;47.520;19.144;2022-07-29T10:29:29;33.80;59.10
45619;DHT22;31343;47.520;19.144;2022-07-29T10:43:51;32.50;60.80
45619;DHT22;31343;47.520;19.144;2022-07-29T10:46:17;32.80;61.20
45619;DHT22;31343;47.520;19.144;2022-07-29T10:49:18;32.80;60.30
45619;DHT22;31343;47.520;19.144;2022-07-29T10:52:00;33.00;60.40
45619;DHT22;31343;47.520;19.144;2022-07-29T10:57:17;33.20;60.00
45619;DHT22;31343;47.520;19.144;2022-07-29T10:59:45;33.90;59.40
45619;DHT22;31343;47.520;19.144;2022-07-29T11:07:29;35.80;57.20
45619;DHT22;31343;47.520;19.144;2022-07-29T11:15:20;35.90;55.20
45619;DHT22;31343;47.520;19.144;2022-07-29T11:20:32;35.70;54.90
45619;DHT22;31343;47.520;19.144;2022-07-29T11:22:59;36.50;55.40
45619;DHT22;31343;47.520;19.144;2022-07-29T11:25:25;36.30;53.80
45619;DHT22;31343;47.520;19.144;2022-07-29T11:27:52;36.70;53.70
45619;DHT22;31343;47.520;19.144;2022-07-29T11:30:19;37.20;53.30
45619;DHT22;31343;47.520;19.144;2022-07-29T11:32:45;36.70;53.60
45619;DHT22;31343;47.520;19.144;2022-07-29T11:35:19;37.30;52.60
45619;DHT22;31343;47.520;19.144;2022-07-29T11:40:32;37.50;52.90
45619;DHT22;31343;47.520;19.144;2022-07-29T11:42:58;37.70;52.20
45619;DHT22;31343;47.520;19.144;2022-07-29T11:45:26;37.50;52.60
45619;DHT22;31343;47.520;19.144;2022-07-29T11:48:15;38.10;51.40
45619;DHT22;31343;47.520;19.144;2022-07-29T11:50:41;38.30;51.50
45619;DHT22;31343;47.520;19.144;2022-07-29T11:53:11;39.10;51.50
45619;DHT22;31343;47.520;19.144;2022-07-29T11:55:39;38.40;50.40
45619;DHT22;31343;47.520;19.144;2022-07-29T11:58:05;38.20;50.80
45619;DHT22;31343;47.520;19.144;2022-07-29T12:00:39;37.80;51.10
45619;DHT22;31343;47.520;19.144;2022-07-29T12:03:07;37.90;50.00
45619;DHT22;31343;47.520;19.144;2022-07-29T12:05:44;39.10;50.50
45619;DHT22;31343;47.520;19.144;2022-07-29T12:08:16;39.20;49.50
45619;DHT22;31343;47.520;19.144;2022-07-29T12:10:45;38.80;49.60
45619;DHT22;31343;47.520;19.144;2022-07-29T12:13:12;38.60;49.40
45619;DHT22;31343;47.520;19.144;2022-07-29T12:15:38;38.30;49.60
45619;DHT22;31343;47.520;19.144;2022-07-29T12:18:15;38.20;50.00
45619;DHT22;31343;47.520;19.144;2022-07-29T12:20:42;38.60;50.10
45619;DHT22;31343;47.520;19.144;2022-07-29T12:23:08;38.30;50.10
45619;DHT22;31343;47.520;19.144;2022-07-29T12:25:37;37.90;50.40
45619;DHT22;31343;47.520;19.144;2022-07-29T12:28:05;37.30;50.40
45619;DHT22;31343;47.520;19.144;2022-07-29T12:33:21;35.50;51.80
45619;DHT22;31343;47.520;19.144;2022-07-29T12:35:53;34.90;52.20
45619;DHT22;31343;47.520;19.144;2022-07-29T12:38:19;34.80;52.60
45619;DHT22;31343;47.520;19.144;2022-07-29T12:40:47;35.50;51.80
45619;DHT22;31343;47.520;19.144;2022-07-29T12:43:18;36.10;50.90
45619;DHT22;31343;47.520;19.144;2022-07-29T12:45:49;37.40;50.00
45619;DHT22;31343;47.520;19.144;2022-07-29T12:48:16;38.40;50.00
45619;DHT22;31343;47.520;19.144;2022-07-29T12:50:59;39.40;49.40
45619;DHT22;31343;47.520;19.144;2022-07-29T12:53:25;39.40;48.00
45619;DHT22;31343;47.520;19.144;2022-07-29T12:55:53;38.50;49.40
45619;DHT22;31343;47.520;19.144;2022-07-29T12:58:37;37.30;49.50
45619;DHT22;31343;47.520;19.144;2022-07-29T13:01:11;37.00;50.00
45619;DHT22;31343;47.520;19.144;2022-07-29T13:03:55;36.70;50.90
45619;DHT22;31343;47.520;19.144;2022-07-29T13:06:36;36.70;50.60
45619;DHT22;31343;47.520;19.144;2022-07-29T13:09:21;36.20;50.70
45619;DHT22;31343;47.520;19.144;2022-07-29T13:11:51;35.90;50.90
45619;DHT22;31343;47.520;19.144;2022-07-29T13:14:39;36.20;51.60
45619;DHT22;31343;47.520;19.144;2022-07-29T13:17:14;36.20;51.80
45619;DHT22;31343;47.520;19.144;2022-07-29T13:22:11;35.20;52.50
45619;DHT22;31343;47.520;19.144;2022-07-29T13:24:58;34.80;53.20
45619;DHT22;31343;47.520;19.144;2022-07-29T13:27:29;34.40;53.40
45619;DHT22;31343;47.520;19.144;2022-07-29T13:29:57;34.50;54.30
45619;DHT22;31343;47.520;19.144;2022-07-29T13:32:28;34.90;53.90
45619;DHT22;31343;47.520;19.144;2022-07-29T13:34:55;35.00;53.00
45619;DHT22;31343;47.520;19.144;2022-07-29T13:37:21;34.80;52.60
45619;DHT22;31343;47.520;19.144;2022-07-29T13:39:47;34.60;52.70
45619;DHT22;31343;47.520;19.144;2022-07-29T13:42:13;34.60;53.10
45619;DHT22;31343;47.520;19.144;2022-07-29T13:44:39;34.40;52.70
45619;DHT22;31343;47.520;19.144;2022-07-29T13:47:06;34.50;53.00
45619;DHT22;31343;47.520;19.144;2022-07-29T13:49:32;34.60;52.70
45619;DHT22;31343;47.520;19.144;2022-07-29T13:51:57;34.80;53.30
45619;DHT22;31343;47.520;19.144;2022-07-29T13:54:23;35.00;53.40
45619;DHT22;31343;47.520;19.144;2022-07-29T13:56:50;35.20;52.50
45619;DHT22;31343;47.520;19.144;2022-07-29T13:59:16;35.00;52.20
45619;DHT22;31343;47.520;19.144;2022-07-29T14:01:42;35.00;52.70
45619;DHT22;31343;47.520;19.144;2022-07-29T14:04:08;34.80;52.80
45619;DHT22;31343;47.520;19.144;2022-07-29T14:06:34;34.50;52.40
45619;DHT22;31343;47.520;19.144;2022-07-29T14:08:59;34.30;52.70
45619;DHT22;31343;47.520;19.144;2022-07-29T14:11:25;34.30;53.00
45619;DHT22;31343;47.520;19.144;2022-07-29T14:13:51;34.20;53.20
45619;DHT22;31343;47.520;19.144;2022-07-29T14:16:17;34.10;53.80
45619;DHT22;31343;47.520;19.144;2022-07-29T14:18:42;34.20;53.40
45619;DHT22;31343;47.520;19.144;2022-07-29T14:21:08;34.20;52.90
45619;DHT22;31343;47.520;19.144;2022-07-29T14:23:34;34.10;52.90
45619;DHT22;31343;47.520;19.144;2022-07-29T14:26:00;33.80;52.80
45619;DHT22;31343;47.520;19.144;2022-07-29T14:28:25;33.80;53.20
45619;DHT22;31343;47.520;19.144;2022-07-29T14:30:51;33.80;53.20
45619;DHT22;31343;47.520;19.144;2022-07-29T14:33:17;33.80;52.90
45619;DHT22;31343;47.520;19.144;2022-07-29T14:35:42;33.90;52.50
45619;DHT22;31343;47.520;19.144;2022-07-29T14:38:09;33.90;52.90
45619;DHT22;31343;47.520;19.144;2022-07-29T14:40:34;33.80;52.90
45619;DHT22;31343;47.520;19.144;2022-07-29T14:43:00;33.70;53.00
45619;DHT22;31343;47.520;19.144;2022-07-29T14:45:26;33.80;53.70
45619;DHT22;31343;47.520;19.144;2022-07-29T14:47:53;33.90;52.90
45619;DHT22;31343;47.520;19.144;2022-07-29T14:50:19;33.80;53.00
45619;DHT22;31343;47.520;19.144;2022-07-29T14:52:45;33.90;52.90
45619;DHT22;31343;47.520;19.144;2022-07-29T14:55:12;33.90;53.10
45619;DHT22;31343;47.520;19.144;2022-07-29T14:57:37;34.00;52.90
45619;DHT22;31343;47.520;19.144;2022-07-29T15:00:04;33.90;52.90
45619;DHT22;31343;47.520;19.144;2022-07-29T15:02:32;33.90;53.50
45619;DHT22;31343;47.520;19.144;2022-07-29T15:04:58;33.90;53.20
45619;DHT22;31343;47.520;19.144;2022-07-29T15:07:23;33.90;53.10
45619;DHT22;31343;47.520;19.144;2022-07-29T15:09:49;34.00;53.30
45619;DHT22;31343;47.520;19.144;2022-07-29T15:12:15;34.10;53.60
45619;DHT22;31343;47.520;19.144;2022-07-29T15:14:41;34.30;53.70
45619;DHT22;31343;47.520;19.144;2022-07-29T15:17:06;34.40;53.60
45619;DHT22;31343;47.520;19.144;2022-07-29T15:19:32;34.40;53.00
45619;DHT22;31343;47.520;19.144;2022-07-29T15:21:58;34.40;52.50
45619;DHT22;31343;47.520;19.144;2022-07-29T15:24:24;34.10;52.70
45619;DHT22;31343;47.520;19.144;2022-07-29T15:26:49;34.00;52.80
45619;DHT22;31343;47.520;19.144;2022-07-29T15:29:15;34.00;52.80
45619;DHT22;31343;47.520;19.144;2022-07-29T15:31:42;34.10;52.80
45619;DHT22;31343;47.520;19.144;2022-07-29T15:34:08;34.20;53.20
45619;DHT22;31343;47.520;19.144;2022-07-29T15:36:33;34.20;52.80
45619;DHT22;31343;47.520;19.144;2022-07-29T15:38:59;34.20;52.80
45619;DHT22;31343;47.520;19.144;2022-07-29T15:41:25;34.20;52.90
45619;DHT22;31343;47.520;19.144;2022-07-29T15:43:51;34.00;53.00
45619;DHT22;31343;47.520;19.144;2022-07-29T15:46:19;34.00;53.30
45619;DHT22;31343;47.520;19.144;2022-07-29T15:49:05;33.90;53.60
45619;DHT22;31343;47.520;19.144;2022-07-29T15:51:32;33.90;53.30
45619;DHT22;31343;47.520;19.144;2022-07-29T15:53:58;33.80;53.60
45619;DHT22;31343;47.520;19.144;2022-07-29T15:56:25;33.70;53.40
45619;DHT22;31343;47.520;19.144;2022-07-29T15:58:51;33.70;53.60
45619;DHT22;31343;47.520;19.144;2022-07-29T16:01:17;33.70;53.80
45619;DHT22;31343;47.520;19.144;2022-07-29T16:03:42;33.80;54.00
45619;DHT22;31343;47.520;19.144;2022-07-29T16:06:09;33.60;53.40
45619;DHT22;31343;47.520;19.144;2022-07-29T16:08:35;33.70;53.70